Time;durP1;ratioP1;P1;durP2;ratioP2;P2;SDS_P1;SDS_P2;PMS_P1;PMS_P2;Temp;Humidity;BMP_temperature;BMP_pressure;BME280_temperature;BME280_humidity;BME280_pressure;Samples;Min_cycle;Max_cycle;Signal;HPM_P1;HPM_P2
2021/06/10 00:00:04;;;;;;;;;;;16.80;1.00;;;;;;5046647;28;20241;-72
2021/06/10 00:02:29;;;;;;;;;;;16.80;1.00;;;;;;5049241;28;19913;-72
2021/06/10 00:04:55;;;;;;;;;;;16.70;1.00;;;;;;5047866;28;19960;-69
2021/06/10 00:07:21;;;;;;;;;;;16.70;1.00;;;;;;5048786;28;19913;-70
2021/06/10 00:09:47;;;;;;;;;;;16.70;1.00;;;;;;5046637;28;19967;-69
2021/06/10 00:12:14;;;;;;;;;;;16.70;1.00;;;;;;5048355;28;20361;-69
2021/06/10 00:14:40;;;;;;;;;;;16.70;1.00;;;;;;5046431;28;19999;-69
2021/06/10 00:17:05;;;;;;;;;;;16.70;1.00;;;;;;5048633;28;20046;-70
2021/06/10 00:19:31;;;;;;;;;;;16.50;1.00;;;;;;5047441;28;19909;-70
2021/06/10 00:21:56;;;;;;;;;;;16.50;1.00;;;;;;5058653;28;20403;-69
2021/06/10 00:24:22;;;;;;;;;;;16.40;1.00;;;;;;5068105;28;20017;-72
2021/06/10 00:26:47;;;;;;;;;;;16.40;1.00;;;;;;5064790;28;19909;-72
2021/06/10 00:29:13;;;;;;;;;;;16.40;1.00;;;;;;5046887;28;19970;-72
2021/06/10 00:31:38;;;;;;;;;;;16.40;1.00;;;;;;5047978;28;19956;-71
2021/06/10 00:34:04;;;;;;;;;;;16.40;1.00;;;;;;5047481;28;19909;-71
2021/06/10 00:36:30;;;;;;;;;;;16.40;1.00;;;;;;5048201;28;19923;-71
2021/06/10 00:38:55;;;;;;;;;;;16.40;1.00;;;;;;5046968;28;20340;-71
2021/06/10 00:41:21;;;;;;;;;;;16.40;1.00;;;;;;5048003;28;19908;-71
2021/06/10 00:43:46;;;;;;;;;;;16.40;1.00;;;;;;5046843;28;19920;-72
2021/06/10 00:46:12;;;;;;;;;;;16.30;1.00;;;;;;5047710;28;19916;-72
2021/06/10 00:48:38;;;;;;;;;;;16.30;1.00;;;;;;5047486;28;19916;-71
2021/06/10 00:51:04;;;;;;;;;;;16.30;1.00;;;;;;5046962;28;20300;-71
2021/06/10 00:53:29;;;;;;;;;;;16.30;1.00;;;;;;5047516;28;19909;-71
2021/06/10 00:55:57;;;;;;;;;;;16.30;1.00;;;;;;5047308;28;19975;-69
2021/06/10 00:58:22;;;;;;;;;;;16.30;1.00;;;;;;5047457;28;19971;-71
2021/06/10 01:00:48;;;;;;;;;;;16.20;1.00;;;;;;5046082;28;19956;-71
2021/06/10 01:03:13;;;;;;;;;;;16.10;1.00;;;;;;5047589;28;19962;-71
2021/06/10 01:05:40;;;;;;;;;;;16.10;1.00;;;;;;5047371;28;20257;-71
2021/06/10 01:08:05;;;;;;;;;;;16.10;1.00;;;;;;5046314;28;19912;-71
2021/06/10 01:10:57;;;;;;;;;;;16.10;1.00;;;;;;5046417;28;20345;-72
2021/06/10 01:13:26;;;;;;;;;;;16.00;1.00;;;;;;5015855;28;19995;-71
2021/06/10 01:15:54;;;;;;;;;;;16.00;1.00;;;;;;5046168;28;20606;-71
2021/06/10 01:18:20;;;;;;;;;;;16.00;1.00;;;;;;5047043;28;20700;-71
2021/06/10 01:20:47;;;;;;;;;;;15.90;1.00;;;;;;5047058;28;19948;-71
2021/06/10 01:23:33;;;;;;;;;;;15.90;1.00;;;;;;5066967;28;20381;-72
2021/06/10 01:26:02;;;;;;;;;;;15.90;1.00;;;;;;5069348;28;20318;-72
2021/06/10 01:28:37;;;;;;;;;;;15.90;1.00;;;;;;5053813;28;19924;-71
2021/06/10 01:31:07;;;;;;;;;;;15.80;1.00;;;;;;5030658;28;19917;-71
2021/06/10 01:33:37;;;;;;;;;;;15.80;1.00;;;;;;5030785;28;19945;-70
2021/06/10 01:36:05;;;;;;;;;;;15.70;1.00;;;;;;5029552;28;19917;-70
2021/06/10 01:38:31;;;;;;;;;;;15.70;1.00;;;;;;5030782;28;19948;-72
2021/06/10 01:40:58;;;;;;;;;;;15.70;1.00;;;;;;5030989;28;19909;-71
2021/06/10 01:43:29;;;;;;;;;;;15.60;1.00;;;;;;5030906;28;19913;-71
2021/06/10 01:45:58;;;;;;;;;;;15.60;1.00;;;;;;5030591;28;19909;-71
2021/06/10 01:48:24;;;;;;;;;;;15.50;1.00;;;;;;5031329;28;19916;-70
2021/06/10 01:50:55;;;;;;;;;;;15.50;1.00;;;;;;5035023;28;19916;-70
2021/06/10 01:53:20;;;;;;;;;;;15.50;1.00;;;;;;5050810;28;20061;-71
2021/06/10 01:55:47;;;;;;;;;;;15.50;1.00;;;;;;5050996;28;20015;-71
2021/06/10 01:58:13;;;;;;;;;;;15.40;1.00;;;;;;5051191;28;19913;-71
2021/06/10 02:00:40;;;;;;;;;;;15.40;1.00;;;;;;5049653;28;19916;-71
2021/06/10 02:03:06;;;;;;;;;;;15.40;1.00;;;;;;5051455;28;19976;-70
2021/06/10 02:05:32;;;;;;;;;;;15.40;1.00;;;;;;5050825;28;19909;-70
2021/06/10 02:07:58;;;;;;;;;;;15.40;1.00;;;;;;5050605;28;20007;-70
2021/06/10 02:10:25;;;;;;;;;;;15.40;1.00;;;;;;5049795;28;19917;-71
2021/06/10 02:12:50;;;;;;;;;;;15.30;1.00;;;;;;5050654;28;19909;-70
2021/06/10 02:15:17;;;;;;;;;;;15.30;1.00;;;;;;5049898;28;19966;-71
2021/06/10 02:17:42;;;;;;;;;;;15.30;1.00;;;;;;5051157;28;19955;-71
2021/06/10 02:20:11;;;;;;;;;;;15.30;1.00;;;;;;5048917;28;20506;-71
2021/06/10 02:22:37;;;;;;;;;;;15.20;1.00;;;;;;5067317;28;19914;-70
2021/06/10 02:25:03;;;;;;;;;;;15.20;1.00;;;;;;5069861;28;20023;-70
2021/06/10 02:27:28;;;;;;;;;;;15.20;1.00;;;;;;5061812;28;19912;-71
2021/06/10 02:29:54;;;;;;;;;;;15.10;1.00;;;;;;5047996;28;19996;-71
2021/06/10 02:32:19;;;;;;;;;;;15.10;1.00;;;;;;5050672;28;19959;-71
2021/06/10 02:34:45;;;;;;;;;;;15.00;1.00;;;;;;5049603;28;19974;-71
2021/06/10 02:37:11;;;;;;;;;;;15.00;1.00;;;;;;5049159;28;19917;-71
2021/06/10 02:39:41;;;;;;;;;;;15.00;1.00;;;;;;5048389;28;19909;-71
2021/06/10 02:42:10;;;;;;;;;;;15.00;1.00;;;;;;5049770;28;19909;-71
2021/06/10 02:44:35;;;;;;;;;;;15.00;1.00;;;;;;5049609;28;20242;-71
2021/06/10 02:47:04;;;;;;;;;;;14.90;1.00;;;;;;5049862;28;19928;-71
2021/06/10 02:49:30;;;;;;;;;;;14.90;1.00;;;;;;5048458;28;19958;-71
2021/06/10 02:51:56;;;;;;;;;;;14.90;1.00;;;;;;5049940;28;20380;-71
2021/06/10 02:54:22;;;;;;;;;;;14.80;1.00;;;;;;5049135;28;19985;-71
2021/06/10 02:56:48;;;;;;;;;;;14.80;1.00;;;;;;5031615;28;19912;-72
2021/06/10 02:59:16;;;;;;;;;;;14.80;1.00;;;;;;5048273;28;19909;-71
2021/06/10 03:01:43;;;;;;;;;;;14.80;1.00;;;;;;5049539;28;19927;-71
2021/06/10 03:04:09;;;;;;;;;;;14.70;1.00;;;;;;5049009;28;20385;-71
2021/06/10 03:06:35;;;;;;;;;;;14.70;1.00;;;;;;5049448;28;19916;-70
2021/06/10 03:09:02;;;;;;;;;;;14.60;1.00;;;;;;5048490;28;20397;-70
2021/06/10 03:11:28;;;;;;;;;;;14.60;1.00;;;;;;5049452;28;19917;-70
2021/06/10 03:13:53;;;;;;;;;;;14.60;1.00;;;;;;5049334;28;19913;-71
2021/06/10 03:16:19;;;;;;;;;;;14.60;1.00;;;;;;5048945;28;19913;-71
2021/06/10 03:18:45;;;;;;;;;;;14.60;1.00;;;;;;5049144;28;20478;-71
2021/06/10 03:21:12;;;;;;;;;;;14.60;1.00;;;;;;5052757;28;19948;-70
2021/06/10 03:23:37;;;;;;;;;;;14.60;1.00;;;;;;5069013;28;19908;-70
2021/06/10 03:26:03;;;;;;;;;;;14.70;1.00;;;;;;5069133;28;20444;-71
2021/06/10 03:28:29;;;;;;;;;;;14.70;1.00;;;;;;5051760;28;19913;-70
2021/06/10 03:30:55;;;;;;;;;;;14.70;1.00;;;;;;5048125;28;19913;-71
2021/06/10 03:33:21;;;;;;;;;;;14.70;1.00;;;;;;5049282;28;19962;-70
2021/06/10 03:35:47;;;;;;;;;;;14.80;1.00;;;;;;5048290;28;19947;-71
2021/06/10 03:38:13;;;;;;;;;;;14.80;1.00;;;;;;5048550;28;19913;-71
2021/06/10 03:40:40;;;;;;;;;;;14.90;1.00;;;;;;5048021;28;19908;-71
2021/06/10 03:43:06;;;;;;;;;;;14.90;1.00;;;;;;5049544;28;20021;-71
2021/06/10 03:45:32;;;;;;;;;;;14.90;1.00;;;;;;5048076;28;19913;-72
2021/06/10 03:47:58;;;;;;;;;;;15.00;1.00;;;;;;5048934;28;20000;-72
2021/06/10 03:50:24;;;;;;;;;;;15.00;1.00;;;;;;5047207;28;19916;-72
2021/06/10 03:52:50;;;;;;;;;;;15.00;1.00;;;;;;5049158;28;19933;-71
2021/06/10 03:55:15;;;;;;;;;;;15.00;1.00;;;;;;5048476;28;19917;-71
2021/06/10 03:57:41;;;;;;;;;;;15.10;1.00;;;;;;5049143;28;20016;-71
2021/06/10 04:00:08;;;;;;;;;;;15.10;1.00;;;;;;5046611;28;20425;-71
2021/06/10 04:02:34;;;;;;;;;;;15.10;1.00;;;;;;5048404;28;19909;-71
2021/06/10 04:04:59;;;;;;;;;;;15.20;1.00;;;;;;5048071;28;19935;-71
2021/06/10 04:07:26;;;;;;;;;;;15.20;1.00;;;;;;5048898;28;19913;-71
2021/06/10 04:09:51;;;;;;;;;;;15.30;1.00;;;;;;5046751;28;20010;-71
2021/06/10 04:12:17;;;;;;;;;;;15.30;1.00;;;;;;5048305;28;20193;-70
2021/06/10 04:14:42;;;;;;;;;;;15.30;1.00;;;;;;5047831;28;19932;-70
2021/06/10 04:17:08;;;;;;;;;;;15.40;1.00;;;;;;5047970;28;20314;-71
2021/06/10 04:19:33;;;;;;;;;;;15.50;1.00;;;;;;5046379;28;19967;-71
2021/06/10 04:21:59;;;;;;;;;;;15.50;1.00;;;;;;5041215;28;20049;-71
2021/06/10 04:24:24;;;;;;;;;;;15.50;1.00;;;;;;5067023;28;19908;-71
2021/06/10 04:26:50;;;;;;;;;;;15.60;1.00;;;;;;5064371;28;19955;-71
2021/06/10 04:29:15;;;;;;;;;;;15.70;1.00;;;;;;5046259;28;19909;-71
2021/06/10 04:31:41;;;;;;;;;;;15.80;1.00;;;;;;5047989;28;20350;-71
2021/06/10 04:34:07;;;;;;;;;;;15.80;1.00;;;;;;5046863;28;20257;-70
2021/06/10 04:36:32;;;;;;;;;;;15.80;1.00;;;;;;5042832;28;19939;-70
2021/06/10 04:38:58;;;;;;;;;;;15.90;1.00;;;;;;5045848;28;20399;-71
2021/06/10 04:41:23;;;;;;;;;;;16.00;1.00;;;;;;5028509;28;20353;-71
2021/06/10 04:43:49;;;;;;;;;;;16.00;1.00;;;;;;5046501;28;20031;-70
2021/06/10 04:46:14;;;;;;;;;;;16.10;1.00;;;;;;5047522;28;19924;-71
2021/06/10 04:48:40;;;;;;;;;;;16.20;1.00;;;;;;5048034;28;20267;-71
2021/06/10 04:51:05;;;;;;;;;;;16.30;1.00;;;;;;5047178;28;19917;-71
2021/06/10 04:53:31;;;;;;;;;;;16.30;1.00;;;;;;5047360;28;20016;-71
2021/06/10 04:55:57;;;;;;;;;;;16.40;1.00;;;;;;5048020;28;19989;-71
2021/06/10 04:58:23;;;;;;;;;;;16.50;1.00;;;;;;5047643;28;20003;-71
2021/06/10 05:00:48;;;;;;;;;;;16.50;1.00;;;;;;5045525;28;19920;-71
2021/06/10 05:03:16;;;;;;;;;;;16.50;1.00;;;;;;5047452;28;19916;-72
2021/06/10 05:05:42;;;;;;;;;;;16.50;1.00;;;;;;5047573;28;19908;-73
2021/06/10 05:08:07;;;;;;;;;;;16.60;1.00;;;;;;5047818;28;20370;-73
2021/06/10 05:10:33;;;;;;;;;;;16.70;1.00;;;;;;5029226;28;20260;-72
2021/06/10 05:12:59;;;;;;;;;;;16.80;1.00;;;;;;5047892;28;19912;-72
2021/06/10 05:15:24;;;;;;;;;;;16.90;1.00;;;;;;5046788;28;19956;-72
2021/06/10 05:17:50;;;;;;;;;;;17.00;1.00;;;;;;5047792;28;20026;-71
2021/06/10 05:20:16;;;;;;;;;;;17.00;1.00;;;;;;5046046;28;19913;-74
2021/06/10 05:22:41;;;;;;;;;;;17.00;1.00;;;;;;5064692;28;19913;-72
2021/06/10 05:25:07;;;;;;;;;;;17.00;1.00;;;;;;5049381;28;20253;-73
2021/06/10 05:27:34;;;;;;;;;;;17.10;1.00;;;;;;5046920;28;20119;-71
2021/06/10 05:30:00;;;;;;;;;;;17.30;1.00;;;;;;5045732;28;19909;-71
2021/06/10 05:32:25;;;;;;;;;;;17.50;1.00;;;;;;5047363;28;19909;-72
2021/06/10 05:34:51;;;;;;;;;;;17.70;1.00;;;;;;5047339;28;19908;-72
2021/06/10 05:37:16;;;;;;;;;;;17.70;99.90;;;;;;5048446;28;19908;-72
2021/06/10 05:39:42;;;;;;;;;;;17.70;99.90;;;;;;5046580;28;20365;-71
2021/06/10 05:42:07;;;;;;;;;;;17.80;99.90;;;;;;5047583;28;19917;-71
2021/06/10 05:44:33;;;;;;;;;;;18.00;99.90;;;;;;5046325;28;20580;-71
2021/06/10 05:46:58;;;;;;;;;;;18.40;99.90;;;;;;5047900;28;19958;-71
2021/06/10 05:49:24;;;;;;;;;;;18.60;1.00;;;;;;5046688;28;20307;-70
2021/06/10 05:51:49;;;;;;;;;;;19.00;99.90;;;;;;5047259;28;19931;-71
2021/06/10 05:54:15;;;;;;;;;;;19.50;99.90;;;;;;5045587;28;19913;-71
2021/06/10 05:56:40;;;;;;;;;;;19.60;1.00;;;;;;5050458;28;19917;-73
2021/06/10 05:59:06;;;;;;;;;;;20.10;1.00;;;;;;5029844;28;19909;-72
2021/06/10 06:01:31;;;;;;;;;;;20.50;99.90;;;;;;5029135;28;19931;-70
2021/06/10 06:03:57;;;;;;;;;;;20.90;1.00;;;;;;5045241;28;19973;-70
2021/06/10 06:06:23;;;;;;;;;;;21.30;99.90;;;;;;5047272;28;19920;-70
2021/06/10 06:08:48;;;;;;;;;;;21.60;99.90;;;;;;5046303;28;19913;-70
2021/06/10 06:11:15;;;;;;;;;;;21.70;11.40;;;;;;5059426;28;19924;-71
2021/06/10 06:13:47;;;;;;;;;;;21.70;1.00;;;;;;5050414;28;19912;-70
2021/06/10 06:16:15;;;;;;;;;;;21.90;1.00;;;;;;5050346;28;20030;-70
2021/06/10 06:18:42;;;;;;;;;;;21.90;1.00;;;;;;5050309;28;20016;-70
2021/06/10 06:21:08;;;;;;;;;;;22.00;1.00;;;;;;5052210;28;19957;-70
2021/06/10 06:23:33;;;;;;;;;;;22.50;1.00;;;;;;5070287;28;19982;-69
2021/06/10 06:25:59;;;;;;;;;;;23.20;1.00;;;;;;5070721;28;19915;-70
2021/06/10 06:28:25;;;;;;;;;;;24.00;1.00;;;;;;5053441;28;19920;-69
2021/06/10 06:30:51;;;;;;;;;;;25.10;1.00;;;;;;5030700;28;20333;-70
2021/06/10 06:33:16;;;;;;;;;;;26.50;99.90;;;;;;5050545;28;20032;-70
2021/06/10 06:35:43;;;;;;;;;;;27.90;99.90;;;;;;5049734;28;19917;-70
2021/06/10 06:38:09;;;;;;;;;;;28.70;99.90;;;;;;5049909;28;19909;-69
2021/06/10 06:40:34;;;;;;;;;;;29.50;99.90;;;;;;5048863;28;19920;-70
2021/06/10 06:43:00;;;;;;;;;;;30.50;99.90;;;;;;5050956;28;19963;-70
2021/06/10 06:45:26;;;;;;;;;;;31.50;99.90;;;;;;5051272;28;19964;-71
2021/06/10 06:47:51;;;;;;;;;;;32.40;99.90;;;;;;5070070;28;20038;-69
2021/06/10 06:50:17;;;;;;;;;;;32.90;99.90;;;;;;5068433;28;19924;-71
2021/06/10 06:52:43;;;;;;;;;;;33.50;99.90;;;;;;5050282;28;19928;-69
2021/06/10 06:55:08;;;;;;;;;;;34.20;99.90;;;;;;5049021;28;20054;-68
2021/06/10 06:57:34;;;;;;;;;;;34.70;99.90;;;;;;5050056;28;19944;-71
2021/06/10 06:59:59;;;;;;;;;;;34.40;99.90;;;;;;5042590;28;19917;-70
2021/06/10 07:02:25;;;;;;;;;;;34.40;99.90;;;;;;5049008;28;19917;-72
2021/06/10 07:04:51;;;;;;;;;;;34.10;99.90;;;;;;5048642;28;20397;-70
2021/06/10 07:07:16;;;;;;;;;;;34.70;99.90;;;;;;5049561;28;20022;-70
2021/06/10 07:09:42;;;;;;;;;;;35.30;99.90;;;;;;5048081;28;19916;-70
2021/06/10 07:12:07;;;;;;;;;;;35.50;99.90;;;;;;5049167;28;20000;-71
2021/06/10 07:14:33;;;;;;;;;;;35.80;99.90;;;;;;5047941;28;19974;-71
2021/06/10 07:16:59;;;;;;;;;;;36.40;99.90;;;;;;5049324;28;19931;-71
2021/06/10 07:19:25;;;;;;;;;;;36.70;99.90;;;;;;5047958;28;19935;-70
2021/06/10 07:21:50;;;;;;;;;;;36.60;99.90;;;;;;5059163;28;19923;-70
2021/06/10 07:24:16;;;;;;;;;;;36.20;99.90;;;;;;5068753;28;20369;-71
2021/06/10 07:26:45;;;;;;;;;;;35.10;99.90;;;;;;5066158;28;20305;-72
2021/06/10 07:29:11;;;;;;;;;;;35.60;99.90;;;;;;5047869;28;19920;-71
2021/06/10 07:31:36;;;;;;;;;;;36.20;99.90;;;;;;5048773;28;19924;-71
2021/06/10 07:34:04;;;;;;;;;;;36.80;99.90;;;;;;5049014;28;20288;-72
2021/06/10 07:36:30;;;;;;;;;;;37.40;99.90;;;;;;5048907;28;20015;-71
2021/06/10 07:38:56;;;;;;;;;;;37.70;99.90;;;;;;5048084;28;19945;-71
2021/06/10 07:41:21;;;;;;;;;;;37.40;99.90;;;;;;5049377;28;20341;-71
2021/06/10 07:43:47;;;;;;;;;;;37.50;99.90;;;;;;5048746;28;19913;-72
2021/06/10 07:46:12;;;;;;;;;;;38.60;99.90;;;;;;5049349;28;19914;-73
2021/06/10 07:48:38;;;;;;;;;;;39.40;99.90;;;;;;5048554;28;20320;-72
2021/06/10 07:51:06;;;;;;;;;;;39.60;99.90;;;;;;5048428;28;19916;-72
2021/06/10 07:53:35;;;;;;;;;;;40.10;99.90;;;;;;5048355;28;20049;-71
2021/06/10 07:56:03;;;;;;;;;;;40.60;99.90;;;;;;5049191;28;19913;-72
2021/06/10 07:58:29;;;;;;;;;;;41.10;99.90;;;;;;5048239;28;20105;-72
2021/06/10 08:00:54;;;;;;;;;;;41.20;99.90;;;;;;5047582;28;20428;-72
2021/06/10 08:03:20;;;;;;;;;;;41.20;99.90;;;;;;5049075;28;19913;-72
2021/06/10 08:05:47;;;;;;;;;;;41.90;96.80;;;;;;5047985;28;19999;-70
2021/06/10 08:08:13;;;;;;;;;;;42.60;94.10;;;;;;5048723;28;19916;-72
2021/06/10 08:10:40;;;;;;;;;;;42.90;90.70;;;;;;5047463;28;19989;-72
2021/06/10 08:13:06;;;;;;;;;;;43.10;84.60;;;;;;5048938;28;19909;-72
2021/06/10 08:15:31;;;;;;;;;;;43.00;75.80;;;;;;5047322;28;19924;-71
2021/06/10 08:17:58;;;;;;;;;;;43.20;70.30;;;;;;5048811;28;19936;-71
2021/06/10 08:20:25;;;;;;;;;;;43.40;62.70;;;;;;5047114;28;19920;-68
2021/06/10 08:22:54;;;;;;;;;;;43.50;57.70;;;;;;5048826;28;20251;-71
2021/06/10 08:25:20;;;;;;;;;;;43.90;54.50;;;;;;5047876;28;19969;-71
2021/06/10 08:27:45;;;;;;;;;;;44.00;50.60;;;;;;5048436;28;20145;-71
2021/06/10 08:30:13;;;;;;;;;;;43.70;45.50;;;;;;5047417;28;19913;-72
2021/06/10 08:32:39;;;;;;;;;;;43.50;42.20;;;;;;5048237;28;19962;-72
2021/06/10 08:35:04;;;;;;;;;;;43.50;38.90;;;;;;5046065;28;19997;-72
2021/06/10 08:37:31;;;;;;;;;;;43.50;36.30;;;;;;5048125;28;20233;-71
2021/06/10 08:39:57;;;;;;;;;;;44.10;33.70;;;;;;5046381;28;20427;-70
2021/06/10 08:42:23;;;;;;;;;;;44.40;31.20;;;;;;5049489;28;19924;-71
2021/06/10 08:44:49;;;;;;;;;;;44.00;28.30;;;;;;5046897;28;20322;-69
2021/06/10 08:47:15;;;;;;;;;;;44.10;26.40;;;;;;5049251;28;20394;-71
2021/06/10 08:49:45;;;;;;;;;;;44.10;24.70;;;;;;5046559;28;19967;-70
2021/06/10 08:52:11;;;;;;;;;;;44.40;23.20;;;;;;5029485;28;19971;-70
2021/06/10 08:54:37;;;;;;;;;;;44.30;20.60;;;;;;5046344;28;19948;-69
2021/06/10 08:57:03;;;;;;;;;;;44.60;19.70;;;;;;5047747;28;19959;-70
2021/06/10 08:59:28;;;;;;;;;;;43.40;17.00;;;;;;5046347;28;19909;-69
2021/06/10 09:01:54;;;;;;;;;;;43.40;15.30;;;;;;5047276;28;19913;-70
2021/06/10 09:04:19;;;;;;;;;;;44.00;15.20;;;;;;5046986;28;19986;-70
2021/06/10 09:06:46;;;;;;;;;;;44.60;14.60;;;;;;5047369;28;19955;-70
2021/06/10 09:09:12;;;;;;;;;;;44.80;13.30;;;;;;5046479;28;20468;-70
2021/06/10 09:11:38;;;;;;;;;;;45.10;12.40;;;;;;5047693;28;19913;-70
2021/06/10 09:14:07;;;;;;;;;;;46.10;12.90;;;;;;5047187;28;19920;-70
2021/06/10 09:16:34;;;;;;;;;;;45.00;8.90;;;;;;5046925;28;19929;-69
2021/06/10 09:19:04;;;;;;;;;;;41.50;2.30;;;;;;5046515;28;19939;-69
2021/06/10 09:21:36;;;;;;;;;;;41.90;3.50;;;;;;5047392;28;19989;-72
2021/06/10 09:24:20;;;;;;;;;;;42.00;3.60;;;;;;5047497;28;19993;-70
2021/06/10 09:26:53;;;;;;;;;;;42.60;3.50;;;;;;5047279;28;19939;-69
2021/06/10 09:29:19;;;;;;;;;;;42.20;1.70;;;;;;5045880;28;19997;-69
2021/06/10 09:31:45;;;;;;;;;;;41.70;1.00;;;;;;5047528;28;19999;-70
2021/06/10 09:34:13;;;;;;;;;;;42.50;2.10;;;;;;5046703;28;19952;-70
2021/06/10 09:39:08;;;;;;;;;;;43.60;1.20;;;;;;4996660;28;20292;-71
2021/06/10 09:41:34;;;;;;;;;;;44.50;2.20;;;;;;4985052;28;19993;-69
2021/06/10 09:43:59;;;;;;;;;;;45.90;3.00;;;;;;4975756;28;20364;-69
2021/06/10 09:46:25;;;;;;;;;;;45.10;1.00;;;;;;4985031;28;19914;-69
2021/06/10 09:49:06;;;;;;;;;;;43.40;1.00;;;;;;4990581;28;19914;-69
2021/06/10 09:51:32;;;;;;;;;;;43.50;1.00;;;;;;5001122;28;19918;-70
2021/06/10 09:53:59;;;;;;;;;;;43.90;1.00;;;;;;5010743;28;19920;-70
2021/06/10 09:56:24;;;;;;;;;;;43.80;1.00;;;;;;5011184;28;19910;-70
2021/06/10 09:58:55;;;;;;;;;;;44.30;1.00;;;;;;5010125;28;20313;-70
2021/06/10 10:01:22;;;;;;;;;;;45.00;1.00;;;;;;5010320;28;19913;-71
2021/06/10 10:03:48;;;;;;;;;;;45.10;1.00;;;;;;4971426;28;19921;-69
2021/06/10 10:06:22;;;;;;;;;;;43.90;1.00;;;;;;4991539;28;20077;-69
2021/06/10 10:08:54;;;;;;;;;;;42.50;1.00;;;;;;4990601;28;19955;-70
2021/06/10 10:11:21;;;;;;;;;;;42.30;1.00;;;;;;4993790;28;19910;-70
2021/06/10 10:13:48;;;;;;;;;;;41.10;1.00;;;;;;5005076;28;19909;-70
2021/06/10 10:16:14;;;;;;;;;;;39.40;1.00;;;;;;4991311;28;19996;-69
2021/06/10 10:18:41;;;;;;;;;;;37.40;1.00;;;;;;4989989;28;20040;-70
2021/06/10 10:21:07;;;;;;;;;;;36.50;1.00;;;;;;4990240;28;20057;-70
2021/06/10 10:23:33;;;;;;;;;;;35.30;1.00;;;;;;4990364;28;19993;-70
2021/06/10 10:26:00;;;;;;;;;;;34.60;1.00;;;;;;4986573;28;19920;-70
2021/06/10 10:28:29;;;;;;;;;;;33.30;1.00;;;;;;4972573;28;19914;-70
2021/06/10 10:30:55;;;;;;;;;;;32.70;1.00;;;;;;4988682;28;19910;-70
2021/06/10 10:33:22;;;;;;;;;;;32.40;1.00;;;;;;4990665;28;19914;-70
2021/06/10 10:35:49;;;;;;;;;;;32.10;1.00;;;;;;4990540;28;20402;-69
2021/06/10 10:38:19;;;;;;;;;;;31.70;1.00;;;;;;4990435;28;19921;-69
2021/06/10 10:40:52;;;;;;;;;;;31.00;1.00;;;;;;4989341;28;19929;-69
2021/06/10 10:43:18;;;;;;;;;;;30.60;1.00;;;;;;4990849;28;19916;-70
2021/06/10 10:45:45;;;;;;;;;;;30.10;1.40;;;;;;4989006;28;19918;-69
2021/06/10 10:48:14;;;;;;;;;;;30.20;4.90;;;;;;4990771;28;19914;-69
2021/06/10 10:50:44;;;;;;;;;;;30.50;7.80;;;;;;4974160;28;20390;-70
2021/06/10 10:53:25;;;;;;;;;;;30.50;8.70;;;;;;4996339;28;20416;-71
2021/06/10 10:56:05;;;;;;;;;;;30.90;21.00;;;;;;4989719;28;19922;-72
2021/06/10 10:58:31;;;;;;;;;;;31.50;13.40;;;;;;4989412;28;19910;-71
2021/06/10 11:00:57;;;;;;;;;;;32.10;15.80;;;;;;4988061;28;20335;-72
2021/06/10 11:03:24;;;;;;;;;;;31.90;16.20;;;;;;4989677;28;19921;-71
2021/06/10 11:05:50;;;;;;;;;;;31.60;18.10;;;;;;4988855;28;19910;-72
2021/06/10 11:08:16;;;;;;;;;;;31.00;19.30;;;;;;4989462;28;19920;-72
2021/06/10 11:10:51;;;;;;;;;;;30.90;20.90;;;;;;4987988;28;19921;-71
2021/06/10 11:13:17;;;;;;;;;;;30.80;22.60;;;;;;4989787;28;19910;-72
2021/06/10 11:15:43;;;;;;;;;;;31.10;24.90;;;;;;4988074;28;19914;-72
2021/06/10 11:18:09;;;;;;;;;;;31.70;25.90;;;;;;4989604;28;19916;-71
2021/06/10 11:20:37;;;;;;;;;;;32.30;26.90;;;;;;4988356;28;20323;-69
2021/06/10 11:23:10;;;;;;;;;;;33.10;27.90;;;;;;4989494;28;20268;-72
2021/06/10 11:25:41;;;;;;;;;;;34.00;28.10;;;;;;4989298;28;19917;-72
2021/06/10 11:28:08;;;;;;;;;;;34.30;27.30;;;;;;4990130;28;19914;-71
2021/06/10 11:30:35;;;;;;;;;;;34.60;27.30;;;;;;4988596;28;19983;-71
2021/06/10 11:33:10;;;;;;;;;;;35.00;26.70;;;;;;4988965;28;19919;-70
2021/06/10 11:35:48;;;;;;;;;;;35.10;25.60;;;;;;4989508;28;19929;-71
2021/06/10 11:38:17;;;;;;;;;;;35.20;25.20;;;;;;4989640;28;20005;-71
2021/06/10 11:40:44;;;;;;;;;;;35.60;23.90;;;;;;4988395;28;19922;-71
2021/06/10 11:43:11;;;;;;;;;;;35.80;22.60;;;;;;4989505;28;19910;-71
2021/06/10 11:45:37;;;;;;;;;;;36.00;22.90;;;;;;4988140;28;20309;-71
2021/06/10 11:48:03;;;;;;;;;;;35.90;22.00;;;;;;4970144;28;20291;-71
2021/06/10 11:50:33;;;;;;;;;;;35.20;19.80;;;;;;4971061;28;20344;-71
2021/06/10 11:53:02;;;;;;;;;;;34.20;18.00;;;;;;5008445;28;20712;-71
2021/06/10 11:55:29;;;;;;;;;;;33.50;16.80;;;;;;5009095;28;20354;-71
2021/06/10 11:57:56;;;;;;;;;;;33.00;16.90;;;;;;4999298;28;19924;-70
2021/06/10 12:00:25;;;;;;;;;;;32.70;17.20;;;;;;4987685;28;19914;-71
2021/06/10 12:02:55;;;;;;;;;;;32.30;15.90;;;;;;4989171;28;19964;-71
2021/06/10 12:05:21;;;;;;;;;;;31.90;15.70;;;;;;4988727;28;19916;-70
2021/06/10 12:07:47;;;;;;;;;;;31.70;16.10;;;;;;4995281;28;19909;-71
2021/06/10 12:10:18;;;;;;;;;;;31.70;15.40;;;;;;5000596;28;19917;-70
2021/06/10 12:12:48;;;;;;;;;;;31.10;14.30;;;;;;5008029;28;19920;-70
2021/06/10 12:15:41;;;;;;;;;;;29.90;15.80;;;;;;5007475;28;19913;-72
2021/06/10 12:18:10;;;;;;;;;;;29.60;16.20;;;;;;4968763;28;20314;-72
2021/06/10 12:20:38;;;;;;;;;;;29.00;16.70;;;;;;4966375;28;19925;-72
2021/06/10 12:23:09;;;;;;;;;;;28.80;17.80;;;;;;4996603;28;20306;-71
2021/06/10 12:25:35;;;;;;;;;;;28.80;19.80;;;;;;5004656;28;20049;-71
2021/06/10 12:28:00;;;;;;;;;;;28.70;21.10;;;;;;5004172;28;20001;-71
2021/06/10 12:30:32;;;;;;;;;;;28.30;22.30;;;;;;5002204;28;20290;-72
2021/06/10 12:33:10;;;;;;;;;;;28.20;23.70;;;;;;5008987;28;20362;-71
2021/06/10 12:35:36;;;;;;;;;;;28.10;25.30;;;;;;5007745;28;20319;-71
2021/06/10 12:38:02;;;;;;;;;;;28.20;26.90;;;;;;5007993;28;19983;-71
2021/06/10 12:40:34;;;;;;;;;;;28.10;28.10;;;;;;5007752;28;19910;-72
2021/06/10 12:43:23;;;;;;;;;;;28.00;29.90;;;;;;5007899;28;19921;-72
2021/06/10 12:45:49;;;;;;;;;;;27.90;31.20;;;;;;5005111;28;19940;-71
2021/06/10 12:48:19;;;;;;;;;;;27.60;32.90;;;;;;4988647;28;20343;-72
2021/06/10 12:50:44;;;;;;;;;;;27.50;35.30;;;;;;4990492;28;19985;-71
2021/06/10 12:53:10;;;;;;;;;;;27.80;37.60;;;;;;4996469;28;20032;-72
2021/06/10 12:55:35;;;;;;;;;;;28.00;38.80;;;;;;4988646;28;19913;-71
2021/06/10 12:58:01;;;;;;;;;;;28.00;40.40;;;;;;4988812;28;19940;-72
2021/06/10 13:00:32;;;;;;;;;;;27.90;41.30;;;;;;4986235;28;20387;-71
2021/06/10 13:03:10;;;;;;;;;;;27.80;42.80;;;;;;4996982;28;19909;-72
2021/06/10 13:05:36;;;;;;;;;;;27.80;44.50;;;;;;5007609;28;20242;-71
2021/06/10 13:08:02;;;;;;;;;;;27.80;45.60;;;;;;5008586;28;20311;-70
2021/06/10 13:10:42;;;;;;;;;;;27.90;46.60;;;;;;5007255;28;19909;-71
2021/06/10 13:13:08;;;;;;;;;;;28.20;48.30;;;;;;5009140;28;19980;-71
2021/06/10 13:15:35;;;;;;;;;;;28.30;50.10;;;;;;5004689;28;19914;-72
2021/06/10 13:18:07;;;;;;;;;;;28.30;50.50;;;;;;4990183;28;20284;-71
2021/06/10 13:20:47;;;;;;;;;;;28.30;50.90;;;;;;4988254;28;19917;-72
2021/06/10 13:23:13;;;;;;;;;;;28.30;51.50;;;;;;4987921;28;19913;-71
2021/06/10 13:25:38;;;;;;;;;;;28.40;52.80;;;;;;4989188;28;20020;-71
2021/06/10 13:28:18;;;;;;;;;;;28.60;54.50;;;;;;4989807;28;19920;-71
2021/06/10 13:30:44;;;;;;;;;;;28.50;56.80;;;;;;4988091;28;20161;-70
2021/06/10 13:33:11;;;;;;;;;;;28.60;60.70;;;;;;4988446;28;20437;-73
2021/06/10 13:35:41;;;;;;;;;;;28.70;64.20;;;;;;4986115;28;19914;-71
2021/06/10 13:38:07;;;;;;;;;;;29.00;68.80;;;;;;4969708;28;20012;-71
2021/06/10 13:40:32;;;;;;;;;;;29.20;70.10;;;;;;4986735;28;20099;-71
2021/06/10 13:42:58;;;;;;;;;;;29.10;71.30;;;;;;4987257;28;20084;-70
2021/06/10 13:45:23;;;;;;;;;;;29.00;73.50;;;;;;4985966;28;19989;-71
2021/06/10 13:47:49;;;;;;;;;;;29.00;77.20;;;;;;4987884;28;19914;-70
2021/06/10 13:50:14;;;;;;;;;;;29.20;80.60;;;;;;4986055;28;19910;-72
2021/06/10 13:52:40;;;;;;;;;;;29.30;84.00;;;;;;4998223;28;19922;-70
2021/06/10 13:55:06;;;;;;;;;;;29.20;87.00;;;;;;5006464;28;20024;-71
2021/06/10 13:57:32;;;;;;;;;;;29.10;89.60;;;;;;5002345;28;19918;-72
2021/06/10 13:59:57;;;;;;;;;;;29.10;88.70;;;;;;4985555;28;19936;-70
2021/06/10 14:02:23;;;;;;;;;;;29.20;90.40;;;;;;4987612;28;20390;-70
2021/06/10 14:04:48;;;;;;;;;;;29.40;90.50;;;;;;4986490;28;20429;-71
2021/06/10 14:07:14;;;;;;;;;;;29.60;90.70;;;;;;4987247;28;19909;-71
2021/06/10 14:09:40;;;;;;;;;;;29.70;91.10;;;;;;4986430;28;19910;-71
2021/06/10 14:12:06;;;;;;;;;;;29.60;90.70;;;;;;4988298;28;20005;-73
2021/06/10 14:14:33;;;;;;;;;;;29.50;90.30;;;;;;4987775;28;19929;-71
2021/06/10 14:16:59;;;;;;;;;;;29.30;90.10;;;;;;4987454;28;20267;-73
2021/06/10 14:19:24;;;;;;;;;;;29.20;90.20;;;;;;4986022;28;19914;-73
2021/06/10 14:21:50;;;;;;;;;;;29.10;90.10;;;;;;4987057;28;19917;-74
2021/06/10 14:24:15;;;;;;;;;;;29.10;90.60;;;;;;4986816;28;19949;-74